RUH weather

King Khaled International Airport
Riyadh, Riyadh Region, Saudi Arabia

Public forecast

Using degrees Celsius for public forecast. Weather courtesy of forecast.io.

METAR (pilot weather report)

Retrieved 2019/05/20 01:00 UTC (52 minutes ago):

OERK 200100Z 16006KT 7000 NSC 29/08 Q1011 NOSIG

TAF (pilot weather forecast)

Forecast is more than 12 hours old.

Retrieved 2019/05/19 00:06 UTC (1 day ago):

TAF OERK 192300Z 2000/2106 VRB03KT 9999 FEW040 SCT080 BECMG 2005/2007 18008G18KT TEMPO 2005/2019 VRB20KT 4000 BLDU TSRA FEW035CB SCT040 PROB30 TEMPO 2019/2021 FEW035CB